VYMD/MDL METAR and TAF weather

Enter ICAO airport designator
Station Type Date Time Source
VYMD METAR 2023/12/03 15:30 UTC NOAA

VYMD 031530Z 00000KT 6000 SCT020 SCT110 23/21 Q1014 NOSIG


Station Type Date Time Source
VYMD Decoded METAR 2023/12/03 15:30 UTC NOAA

Station name not available
Dec 03, 2023 - 10:30 AM EST / 2023.12.03 1530 UTC
Wind: Calm:0
Visibility: 3 mile(s):0
Sky conditions: partly cloudy
Temperature: 73 F (23 C)
Dew Point: 69 F (21 C)
Relative Humidity: 88%
Pressure (altimeter): 29.94 in. Hg (1014 hPa)
ob: VYMD 031530Z 00000KT 6000 SCT020 SCT110 23/21 Q1014 NOSIG
cycle: 15

Station Type Date Time Source
VYMD TAF 2023/12/03 12:00 UTC NOAA

TAF VYMD 031100Z 0312/0412 35003KT 7000 SCT025 SCT120
TEMPO 0312/0318 36004KT 6000 BKN020 BKN110

Example: see airport list